EBCI Airport Information

Runway Information
Runway 07 Length 8366 ft width 148 ft
Elevation 611 ft Threshold 1477 ft Heading 66
Runway 25 Length 8366 ft Width 148 ft
Elevation 583 ft Threshold 0 ft Heading 246
Airport Frequencies
Type APP Name CHARLEROI Frequency 133.125 MHZ
Type ATIS Name ATIS Frequency 134.625 MHZ
Type GND Name CHARLEROI Frequency 121.8 MHZ
Type TWR Name CHARLEROI Frequency 121.3 MHZ
Airport Navaids
Type VOR-DME Name Gosly Frequency 115700 KHZ
Type NDB Name Charleroi Frequency 323 KHZ
Airport Weather Information & NOTAM
ADDS - METARS form results

(0108 UTC 26 February 2018)
 
METAR text: EBCI 260050Z 05014KT CAVOK M05/M11 Q1026 NOSIG
Conditions at: EBCI (CHARLEROI/GOSSEL, BE) observed 0050 UTC 26 February 2018
Temperature: -5.0°C (23°F)
Dewpoint: -11.0°C (12°F) [RH = 63%]
Pressure (altimeter): 30.30 inches Hg (1026.0 mb)
Winds: from the NE (50 degrees) at 16 MPH (14 knots; 7.3 m/s)
Visibility: 6 or more miles (10+ km)
Ceiling: ceiling and visibility are OK
Clouds: unknown
Weather: no significant weather observed at this time

METAR text: EBCI 260020Z 05014KT CAVOK M05/M10 Q1026 NOSIG
Conditions at: EBCI (CHARLEROI/GOSSEL, BE) observed 0020 UTC 26 February 2018
Temperature: -5.0°C (23°F)
Dewpoint: -10.0°C (14°F) [RH = 68%]
Pressure (altimeter): 30.30 inches Hg (1026.0 mb)
Winds: from the NE (50 degrees) at 16 MPH (14 knots; 7.3 m/s)
Visibility: 6 or more miles (10+ km)
Ceiling: ceiling and visibility are OK
Clouds: unknown
Weather: no significant weather observed at this time